createdAt,value
2023-01-12T00:02:22.260Z,93.88
2023-01-12T00:04:50.616Z,94.15
2023-01-12T00:07:20.404Z,94.38
2023-01-12T00:09:48.659Z,94.50
2023-01-12T00:12:16.800Z,94.26
2023-01-12T00:14:45.030Z,94.24
2023-01-12T00:17:17.063Z,94.19
2023-01-12T00:19:45.326Z,94.23
2023-01-12T00:22:13.482Z,94.39
2023-01-12T00:24:44.728Z,95.09
2023-01-12T00:27:15.916Z,94.56
2023-01-12T00:29:44.232Z,94.20
2023-01-12T00:32:18.614Z,93.86
2023-01-12T00:34:47.077Z,93.68
2023-01-12T00:37:16.076Z,93.86
2023-01-12T00:40:00.998Z,93.30
2023-01-12T00:42:50.212Z,92.78
2023-01-12T00:45:21.905Z,93.32
2023-01-12T00:47:53.467Z,93.65
2023-01-12T00:50:22.147Z,92.78
2023-01-12T00:52:50.456Z,93.20
2023-01-12T00:55:18.897Z,93.46
2023-01-12T00:57:48.762Z,93.72
2023-01-12T01:00:17.528Z,93.22
2023-01-12T01:02:45.845Z,93.77
2023-01-12T01:05:14.313Z,93.72
2023-01-12T01:07:42.492Z,93.74
2023-01-12T01:10:11.739Z,93.25
2023-01-12T01:12:40.913Z,93.64
2023-01-12T01:15:10.697Z,94.15
2023-01-12T01:17:38.807Z,93.86
2023-01-12T01:20:07.391Z,93.62
2023-01-12T01:22:35.737Z,93.47
2023-01-12T01:25:04.597Z,93.41
2023-01-12T01:27:32.802Z,93.18
2023-01-12T01:30:01.020Z,93.36
2023-01-12T01:32:29.417Z,93.88
2023-01-12T01:34:57.498Z,94.07
2023-01-12T01:37:25.711Z,94.03
2023-01-12T01:39:56.339Z,94.84
2023-01-12T01:42:30.650Z,94.83
2023-01-12T01:45:01.577Z,94.48
2023-01-12T01:47:39.703Z,94.82
2023-01-12T01:50:16.927Z,95.03
2023-01-12T01:52:52.594Z,95.15
2023-01-12T01:55:25.240Z,95.14
2023-01-12T01:58:23.006Z,95.24
2023-01-12T02:00:52.552Z,94.63
2023-01-12T02:03:21.425Z,94.37
2023-01-12T02:05:51.490Z,93.96
2023-01-12T02:08:26.935Z,93.59
2023-01-12T02:10:59.070Z,92.95
2023-01-12T02:13:50.222Z,92.98
2023-01-12T02:16:28.053Z,92.93
2023-01-12T02:19:05.061Z,93.71
2023-01-12T02:21:51.492Z,93.72
2023-01-12T02:24:27.714Z,92.99
2023-01-12T02:27:19.222Z,93.15
2023-01-12T02:30:03.930Z,92.96
2023-01-12T02:32:55.295Z,92.44
2023-01-12T02:35:52.566Z,92.48
2023-01-12T02:38:33.828Z,92.40
2023-01-12T02:41:46.381Z,92.87
2023-01-12T02:44:26.852Z,93.00
2023-01-12T02:46:59.348Z,92.59
2023-01-12T02:49:32.102Z,92.38
2023-01-12T02:52:07.760Z,92.11
2023-01-12T02:54:39.265Z,92.11
2023-01-12T02:57:09.753Z,92.64
2023-01-12T02:59:42.151Z,92.62
2023-01-12T03:02:14.413Z,92.69
2023-01-12T03:04:42.832Z,92.95
2023-01-12T03:07:37.680Z,92.95
2023-01-12T03:10:17.888Z,92.59
2023-01-12T03:12:46.349Z,93.15
2023-01-12T03:15:17.758Z,93.23
2023-01-12T03:18:15.128Z,93.23
2023-01-12T03:20:53.620Z,93.51
2023-01-12T03:23:31.490Z,93.62
2023-01-12T03:26:03.096Z,93.68
2023-01-12T03:28:35.902Z,94.27
2023-01-12T03:31:10.077Z,93.89
2023-01-12T03:33:39.675Z,93.89
2023-01-12T03:36:14.574Z,93.27
2023-01-12T03:38:45.938Z,93.55
2023-01-12T03:41:23.809Z,93.97
2023-01-12T03:43:55.942Z,93.95
2023-01-12T03:46:39.004Z,93.81
2023-01-12T03:49:31.212Z,94.11
2023-01-12T03:52:01.778Z,93.96
2023-01-12T03:54:32.406Z,93.66
2023-01-12T03:57:03.879Z,93.60
2023-01-12T03:59:32.316Z,93.56
2023-01-12T04:02:00.625Z,93.39
2023-01-12T04:04:28.788Z,93.38
2023-01-12T04:06:57.211Z,93.52
2023-01-12T04:09:26.557Z,93.18
2023-01-12T04:12:13.484Z,93.36
2023-01-12T04:14:48.073Z,93.59
2023-01-12T04:17:16.708Z,94.06
2023-01-12T04:19:44.984Z,94.43
2023-01-12T04:22:34.529Z,94.70
2023-01-12T04:25:03.531Z,94.66
2023-01-12T04:27:31.748Z,94.59
2023-01-12T04:29:59.995Z,94.28
2023-01-12T04:32:28.257Z,94.19
2023-01-12T04:34:58.888Z,94.09
2023-01-12T04:37:27.004Z,94.37
2023-01-12T04:39:55.243Z,93.87
2023-01-12T04:42:41.721Z,93.40
2023-01-12T04:45:10.500Z,94.02
2023-01-12T04:47:38.576Z,93.78
2023-01-12T04:50:07.528Z,93.56
2023-01-12T04:52:39.330Z,92.85
2023-01-12T04:55:07.763Z,92.72
2023-01-12T04:57:35.962Z,93.23
2023-01-12T05:00:05.657Z,93.45
2023-01-12T05:02:33.807Z,93.86
2023-01-12T05:05:02.192Z,93.74
2023-01-12T05:07:33.241Z,93.89
2023-01-12T05:10:20.344Z,94.16
2023-01-12T05:12:48.562Z,93.74
2023-01-12T05:15:17.272Z,93.91
2023-01-12T05:17:47.283Z,93.89
2023-01-12T05:20:15.620Z,94.09
2023-01-12T05:22:43.958Z,93.83
2023-01-12T05:25:12.315Z,93.39
2023-01-12T05:27:40.811Z,93.00
2023-01-12T05:30:11.176Z,93.25
2023-01-12T05:32:41.761Z,93.43
2023-01-12T05:35:10.189Z,93.09
2023-01-12T05:37:39.644Z,92.96
2023-01-12T05:40:08.945Z,93.14
2023-01-12T05:42:56.132Z,93.36
2023-01-12T05:45:24.674Z,93.52
2023-01-12T05:48:02.511Z,93.83
2023-01-12T05:50:32.602Z,93.40
2023-01-12T05:53:11.288Z,93.52
2023-01-12T05:55:41.282Z,93.57
2023-01-12T05:58:15.180Z,93.24
2023-01-12T06:00:48.599Z,92.65
2023-01-12T06:03:17.350Z,92.63
2023-01-12T06:05:53.962Z,92.37
2023-01-12T06:08:24.136Z,92.10
2023-01-12T06:10:53.726Z,91.86
2023-01-12T06:13:41.823Z,91.17
2023-01-12T06:16:10.794Z,90.86
2023-01-12T06:18:41.573Z,91.03
2023-01-12T06:21:12.807Z,91.07
2023-01-12T06:23:41.275Z,91.38
2023-01-12T06:26:13.686Z,92.03
2023-01-12T06:28:43.357Z,92.28
2023-01-12T06:31:13.747Z,91.95
2023-01-12T06:33:43.268Z,92.15
2023-01-12T06:36:12.323Z,92.47
2023-01-12T06:38:40.822Z,92.26
2023-01-12T06:41:30.760Z,91.92
2023-01-12T06:43:59.723Z,91.56
2023-01-12T06:46:28.262Z,90.99
2023-01-12T06:48:58.967Z,91.24
2023-01-12T06:51:27.649Z,91.36
2023-01-12T06:53:56.385Z,91.83
2023-01-12T06:56:28.498Z,91.74
2023-01-12T06:58:59.849Z,91.76
2023-01-12T07:01:28.231Z,91.76
2023-01-12T07:04:00.977Z,91.76
2023-01-12T07:06:29.346Z,91.69
2023-01-12T07:08:57.575Z,91.35
2023-01-12T07:11:26.085Z,90.68
2023-01-12T07:13:56.100Z,90.37
2023-01-12T07:16:27.853Z,90.50
2023-01-12T07:18:56.337Z,91.20
2023-01-12T07:21:24.676Z,91.34
2023-01-12T07:23:53.192Z,91.38
2023-01-12T07:26:21.480Z,91.25
2023-01-12T07:28:50.789Z,91.09
2023-01-12T07:31:19.439Z,90.48
2023-01-12T07:33:50.253Z,90.85
2023-01-12T07:36:18.608Z,91.09
2023-01-12T07:38:47.193Z,91.64
2023-01-12T07:41:34.161Z,91.56
2023-01-12T07:44:09.908Z,91.38
2023-01-12T07:46:38.293Z,92.20
2023-01-12T07:49:06.619Z,92.47
2023-01-12T07:51:35.247Z,92.31
2023-01-12T07:54:04.642Z,92.38
2023-01-12T07:56:33.992Z,92.15
2023-01-12T07:59:03.889Z,91.98
2023-01-12T08:01:33.031Z,91.34
2023-01-12T08:04:01.600Z,90.86
2023-01-12T08:06:30.665Z,90.15
2023-01-12T08:09:00.237Z,90.06
2023-01-12T08:11:28.811Z,90.09
2023-01-12T08:14:01.485Z,89.71
2023-01-12T08:16:39.776Z,89.68
2023-01-12T08:19:16.376Z,89.23
2023-01-12T08:21:57.192Z,88.21
2023-01-12T08:24:35.753Z,88.01
2023-01-12T08:27:09.518Z,88.28
2023-01-12T08:29:44.403Z,87.44
2023-01-12T08:32:14.363Z,87.35
2023-01-12T08:34:45.991Z,87.62
2023-01-12T08:37:21.358Z,87.66
2023-01-12T08:39:51.492Z,87.61
2023-01-12T08:42:20.700Z,87.67
2023-01-12T08:44:49.427Z,87.61
2023-01-12T08:47:30.735Z,87.47
2023-01-12T08:50:00.653Z,86.54
2023-01-12T08:52:35.782Z,86.76
2023-01-12T08:55:04.506Z,86.69
2023-01-12T08:57:33.784Z,86.78
2023-01-12T09:00:02.900Z,87.19
2023-01-12T09:02:31.155Z,86.41
2023-01-12T09:04:59.701Z,86.45
2023-01-12T09:07:28.419Z,86.58
2023-01-12T09:09:56.919Z,86.50
2023-01-12T09:12:28.510Z,86.77
2023-01-12T09:14:57.038Z,86.87
2023-01-12T09:17:26.883Z,86.88
2023-01-12T09:19:55.974Z,86.85
2023-01-12T09:22:24.214Z,86.36
2023-01-12T09:24:53.006Z,86.37
2023-01-12T09:27:21.236Z,86.46
2023-01-12T09:29:49.459Z,86.78
2023-01-12T09:32:22.993Z,87.25
2023-01-12T09:34:54.401Z,86.94
2023-01-12T09:37:23.185Z,87.11
2023-01-12T09:39:51.517Z,86.83
2023-01-12T09:42:40.559Z,86.83
2023-01-12T09:45:40.053Z,86.69
2023-01-12T09:48:12.849Z,86.62
2023-01-12T09:50:49.961Z,86.27
2023-01-12T09:53:36.894Z,86.19
2023-01-12T09:56:08.380Z,86.47
2023-01-12T09:58:53.732Z,86.25
2023-01-12T10:01:29.531Z,86.09
2023-01-12T10:04:01.729Z,86.59
2023-01-12T10:06:30.597Z,86.72
2023-01-12T10:09:04.030Z,86.17
2023-01-12T10:11:36.938Z,85.66
2023-01-12T10:14:33.240Z,85.49
2023-01-12T10:17:27.898Z,85.39
2023-01-12T10:20:29.745Z,84.70
2023-01-12T10:23:10.077Z,83.99
2023-01-12T10:25:48.771Z,83.84
2023-01-12T10:28:24.344Z,84.15
2023-01-12T10:30:56.259Z,84.04
2023-01-12T10:33:33.157Z,84.59
2023-01-12T10:36:19.846Z,84.18
2023-01-12T10:39:03.828Z,83.87
2023-01-12T10:41:40.036Z,84.70
2023-01-12T10:44:17.542Z,85.11
2023-01-12T10:47:09.643Z,85.10
2023-01-12T10:49:43.727Z,84.50
2023-01-12T10:52:36.864Z,84.46
2023-01-12T10:55:05.203Z,84.51
2023-01-12T10:57:34.087Z,84.74
2023-01-12T11:00:03.012Z,84.73
2023-01-12T11:02:43.994Z,84.77
2023-01-12T11:05:38.588Z,84.67
2023-01-12T11:08:29.995Z,84.22
2023-01-12T11:11:13.994Z,83.52
2023-01-12T11:13:42.503Z,83.33
2023-01-12T11:16:27.085Z,83.32
2023-01-12T11:19:32.569Z,83.09
2023-01-12T11:22:09.624Z,84.04
2023-01-12T11:24:55.733Z,83.77
2023-01-12T11:27:28.637Z,83.83
2023-01-12T11:30:04.406Z,83.88
2023-01-12T11:32:49.746Z,83.58
2023-01-12T11:36:00.889Z,83.74
2023-01-12T11:38:53.436Z,83.73
2023-01-12T11:41:43.539Z,83.70
2023-01-12T11:44:26.179Z,83.94
2023-01-12T11:47:10.726Z,83.44
2023-01-12T11:50:00.826Z,82.70
2023-01-12T11:52:35.458Z,82.48
2023-01-12T11:55:15.486Z,82.65
2023-01-12T11:58:10.092Z,82.69
2023-01-12T12:01:08.563Z,82.96
2023-01-12T12:04:01.690Z,82.70
2023-01-12T12:06:56.254Z,83.60
2023-01-12T12:09:48.894Z,83.39
2023-01-12T12:12:46.814Z,83.65
2023-01-12T12:15:23.787Z,83.46
2023-01-12T12:18:28.678Z,83.32
2023-01-12T12:21:02.476Z,82.98
2023-01-12T12:23:36.640Z,83.55
2023-01-12T12:26:14.080Z,83.71
2023-01-12T12:29:00.587Z,83.25
2023-01-12T12:32:03.641Z,82.61
2023-01-12T12:34:54.577Z,82.25
2023-01-12T12:37:32.657Z,82.48
2023-01-12T12:40:32.564Z,82.34
2023-01-12T12:43:49.026Z,81.09
2023-01-12T12:46:43.251Z,81.45
2023-01-12T12:49:22.300Z,81.70
2023-01-12T12:51:58.031Z,81.69
2023-01-12T12:54:27.717Z,81.36
2023-01-12T12:56:56.625Z,81.82
2023-01-12T12:59:34.181Z,81.41
2023-01-12T13:02:03.662Z,81.16
2023-01-12T13:04:44.087Z,81.15
2023-01-12T13:07:19.348Z,81.31
2023-01-12T13:09:48.939Z,80.92
2023-01-12T13:12:21.781Z,80.84
2023-01-12T13:15:21.375Z,81.48
2023-01-12T13:17:51.066Z,81.17
2023-01-12T13:20:26.255Z,81.09
2023-01-12T13:22:56.742Z,81.50
2023-01-12T13:25:24.894Z,81.36
2023-01-12T13:27:57.855Z,81.03
2023-01-12T13:30:28.909Z,81.50
2023-01-12T13:33:15.265Z,82.40
2023-01-12T13:35:47.015Z,82.66
2023-01-12T13:38:34.181Z,82.93
2023-01-12T13:41:37.253Z,82.84
2023-01-12T13:44:10.518Z,82.54
2023-01-12T13:46:51.522Z,82.69
2023-01-12T13:49:24.235Z,83.10
2023-01-12T13:52:03.197Z,83.30
2023-01-12T13:54:32.745Z,82.88
2023-01-12T13:57:10.793Z,83.10
2023-01-12T13:59:39.212Z,83.01
2023-01-12T14:02:18.360Z,83.25
2023-01-12T14:05:26.192Z,83.24
2023-01-12T14:08:06.684Z,83.52
2023-01-12T14:10:58.446Z,84.65
2023-01-12T14:13:34.254Z,85.12
2023-01-12T14:16:29.012Z,85.40
2023-01-12T14:18:57.400Z,86.33
2023-01-12T14:21:33.367Z,86.63
2023-01-12T14:24:22.475Z,86.48
2023-01-12T14:26:51.159Z,86.10
2023-01-12T14:29:19.558Z,86.22
2023-01-12T14:31:52.015Z,86.38
2023-01-12T14:34:37.459Z,86.52
2023-01-12T14:37:19.109Z,86.90
2023-01-12T14:39:47.678Z,87.23
2023-01-12T14:42:37.342Z,87.27
2023-01-12T14:45:46.061Z,87.45
2023-01-12T14:48:25.953Z,87.93
2023-01-12T14:51:32.704Z,88.31
2023-01-12T14:54:07.006Z,88.66
2023-01-12T14:56:43.683Z,88.36
2023-01-12T14:59:44.511Z,88.92
2023-01-12T15:02:15.506Z,89.17
2023-01-12T15:05:02.275Z,89.13
2023-01-12T15:07:36.980Z,89.25
2023-01-12T15:10:17.803Z,89.37
2023-01-12T15:12:53.850Z,89.20
2023-01-12T15:15:48.404Z,89.36
2023-01-12T15:18:35.424Z,89.24
2023-01-12T15:21:23.520Z,89.30
2023-01-12T15:24:10.204Z,89.26
2023-01-12T15:26:38.268Z,89.31
2023-01-12T15:29:06.419Z,89.31
2023-01-12T15:31:37.467Z,89.21
2023-01-12T15:34:06.594Z,89.44
2023-01-12T15:36:35.053Z,89.79
2023-01-12T15:39:03.159Z,89.63
2023-01-12T15:41:50.649Z,89.88
2023-01-12T15:44:21.185Z,90.37
2023-01-12T15:46:49.392Z,90.65
2023-01-12T15:49:17.601Z,90.91
2023-01-12T15:51:50.984Z,91.12
2023-01-12T15:54:20.756Z,90.86
2023-01-12T15:56:48.988Z,91.03
2023-01-12T15:59:17.212Z,91.18
2023-01-12T16:01:48.634Z,90.64
2023-01-12T16:04:42.261Z,90.85
2023-01-12T16:07:06.601Z,91.26
2023-01-12T16:09:34.916Z,91.33
2023-01-12T16:12:03.745Z,91.74
2023-01-12T16:14:31.953Z,91.78
2023-01-12T16:17:00.052Z,91.97
2023-01-12T16:19:28.451Z,91.70
2023-01-12T16:21:56.726Z,91.64
2023-01-12T16:24:26.983Z,91.49
2023-01-12T16:26:55.282Z,91.27
2023-01-12T16:29:24.337Z,91.40
2023-01-12T16:31:52.646Z,91.60
2023-01-12T16:34:23.676Z,91.57
2023-01-12T16:36:52.033Z,91.62
2023-01-12T16:39:20.186Z,91.84
2023-01-12T16:41:48.748Z,91.93
2023-01-12T16:44:17.006Z,91.90
2023-01-12T16:46:45.320Z,91.40
2023-01-12T16:49:13.698Z,91.70
2023-01-12T16:51:42.156Z,91.86
2023-01-12T16:54:10.414Z,91.71
2023-01-12T16:56:38.854Z,91.40
2023-01-12T16:59:08.132Z,91.01
2023-01-12T17:01:36.449Z,91.16
2023-01-12T17:04:05.016Z,91.41
2023-01-12T17:06:33.238Z,91.57
2023-01-12T17:09:06.487Z,91.40
2023-01-12T17:11:35.428Z,91.39
2023-01-12T17:14:23.115Z,91.74
2023-01-12T17:16:53.878Z,92.28
2023-01-12T17:19:24.085Z,92.38
2023-01-12T17:21:54.161Z,92.69
2023-01-12T17:24:22.494Z,92.69
2023-01-12T17:26:54.116Z,92.60
2023-01-12T17:29:22.675Z,92.47
2023-01-12T17:31:51.604Z,92.46
2023-01-12T17:34:19.856Z,92.23
2023-01-12T17:36:48.124Z,92.50
2023-01-12T17:39:16.307Z,92.10
2023-01-12T17:42:03.485Z,92.38
2023-01-12T17:44:31.720Z,91.69
2023-01-12T17:46:59.834Z,91.44
2023-01-12T17:49:28.521Z,91.25
2023-01-12T17:51:56.980Z,90.95
2023-01-12T17:54:26.665Z,91.01
2023-01-12T17:56:54.810Z,91.43
2023-01-12T17:59:24.060Z,91.31
2023-01-12T18:01:53.827Z,90.95
2023-01-12T18:04:22.319Z,90.85
2023-01-12T18:06:50.482Z,90.50
2023-01-12T18:09:19.192Z,90.81
2023-01-12T18:11:48.465Z,90.54
2023-01-12T18:14:17.251Z,90.68
2023-01-12T18:16:45.375Z,90.84
2023-01-12T18:19:15.131Z,90.93
2023-01-12T18:21:44.975Z,90.71
2023-01-12T18:24:13.141Z,90.50
2023-01-12T18:26:41.341Z,90.68
2023-01-12T18:29:10.550Z,90.91
2023-01-12T18:31:42.140Z,91.09
2023-01-12T18:34:11.109Z,91.02
2023-01-12T18:36:41.527Z,91.15
2023-01-12T18:39:16.269Z,91.20
2023-01-12T18:42:03.864Z,91.16
2023-01-12T18:44:33.144Z,91.26
2023-01-12T18:47:21.150Z,91.05
2023-01-12T18:49:49.357Z,90.73
2023-01-12T18:52:37.516Z,90.51
2023-01-12T18:55:06.344Z,90.89
2023-01-12T18:57:35.208Z,91.20
2023-01-12T19:00:17.297Z,90.95
2023-01-12T19:02:45.857Z,91.00
2023-01-12T19:05:34.784Z,91.49
2023-01-12T19:08:23.117Z,91.19
2023-01-12T19:10:51.730Z,90.99
2023-01-12T19:13:39.670Z,90.30
2023-01-12T19:16:33.371Z,90.05
2023-01-12T19:19:01.647Z,89.96
2023-01-12T19:21:48.519Z,89.77
2023-01-12T19:24:35.647Z,90.40
2023-01-12T19:27:22.978Z,90.94
2023-01-12T19:29:51.290Z,91.08
2023-01-12T19:32:19.413Z,91.56
2023-01-12T19:34:48.348Z,91.39
2023-01-12T19:37:18.728Z,91.93
2023-01-12T19:40:13.204Z,91.84
2023-01-12T19:43:00.385Z,91.99
2023-01-12T19:45:29.312Z,92.26
2023-01-12T19:47:57.451Z,92.08
2023-01-12T19:50:25.889Z,91.99
2023-01-12T19:52:55.878Z,92.02
2023-01-12T19:55:24.146Z,91.96
2023-01-12T19:57:54.477Z,92.33
2023-01-12T20:00:25.944Z,92.40
2023-01-12T20:02:54.192Z,92.72
2023-01-12T20:05:25.220Z,92.58
2023-01-12T20:07:53.941Z,92.83
2023-01-12T20:10:23.543Z,92.96
2023-01-12T20:12:52.648Z,93.39
2023-01-12T20:15:21.371Z,93.64
2023-01-12T20:17:50.430Z,93.91
2023-01-12T20:20:19.159Z,93.94
2023-01-12T20:22:50.721Z,93.78
2023-01-12T20:25:20.217Z,93.50
2023-01-12T20:27:49.788Z,93.11
2023-01-12T20:30:36.518Z,93.12
2023-01-12T20:33:07.411Z,92.89
2023-01-12T20:35:38.689Z,92.83
2023-01-12T20:38:08.670Z,92.31
2023-01-12T20:40:38.319Z,91.59
2023-01-12T20:43:06.609Z,92.24
2023-01-12T20:45:35.086Z,92.37
2023-01-12T20:48:03.449Z,92.16
2023-01-12T20:50:31.533Z,91.73
2023-01-12T20:53:00.112Z,91.82
2023-01-12T20:55:28.250Z,92.04
2023-01-12T20:57:56.306Z,91.82
2023-01-12T21:00:24.575Z,91.92
2023-01-12T21:02:52.742Z,91.62
2023-01-12T21:05:20.961Z,91.85
2023-01-12T21:07:52.031Z,92.14
2023-01-12T21:10:22.438Z,91.53
2023-01-12T21:12:50.546Z,91.05
2023-01-12T21:15:18.894Z,91.23
2023-01-12T21:17:48.231Z,91.27
2023-01-12T21:20:17.963Z,90.75
2023-01-12T21:22:48.267Z,90.75
2023-01-12T21:25:16.429Z,90.86
2023-01-12T21:27:45.806Z,90.63
2023-01-12T21:30:14.029Z,90.49
2023-01-12T21:32:43.818Z,90.52
2023-01-12T21:35:14.910Z,90.83
2023-01-12T21:37:43.301Z,91.09
2023-01-12T21:40:12.042Z,91.33
2023-01-12T21:42:58.888Z,91.18
2023-01-12T21:45:27.108Z,91.71
2023-01-12T21:47:55.512Z,92.15
2023-01-12T21:50:23.786Z,92.14
2023-01-12T21:52:52.391Z,92.46
2023-01-12T21:55:20.562Z,92.47
2023-01-12T21:57:49.234Z,92.26
2023-01-12T22:00:17.828Z,92.31
2023-01-12T22:02:46.223Z,92.33
2023-01-12T22:05:14.410Z,92.11
2023-01-12T22:07:42.624Z,92.67
2023-01-12T22:10:20.408Z,92.68
2023-01-12T22:12:57.052Z,92.80
2023-01-12T22:15:27.273Z,92.84
2023-01-12T22:17:55.933Z,92.92
2023-01-12T22:20:25.736Z,93.23
2023-01-12T22:22:54.595Z,93.25
2023-01-12T22:25:23.158Z,92.84
2023-01-12T22:27:51.490Z,92.76
2023-01-12T22:30:22.821Z,92.64
2023-01-12T22:32:55.759Z,92.64
2023-01-12T22:35:26.881Z,92.74
2023-01-12T22:37:55.984Z,92.84
2023-01-12T22:40:24.409Z,93.50
2023-01-12T22:43:11.119Z,93.72
2023-01-12T22:45:41.382Z,93.51
2023-01-12T22:48:10.168Z,93.62
2023-01-12T22:50:38.415Z,93.76
2023-01-12T22:53:06.492Z,93.74
2023-01-12T22:55:34.689Z,93.27
2023-01-12T22:58:02.924Z,93.12
2023-01-12T23:00:33.965Z,93.77
2023-01-12T23:03:06.793Z,94.15
2023-01-12T23:05:43.010Z,94.41
2023-01-12T23:08:13.305Z,94.13
2023-01-12T23:10:42.310Z,94.03
2023-01-12T23:13:21.483Z,94.29
2023-01-12T23:15:56.795Z,94.03
2023-01-12T23:18:31.601Z,93.83
2023-01-12T23:21:15.685Z,94.14
2023-01-12T23:23:45.633Z,94.56
2023-01-12T23:26:25.894Z,94.48
2023-01-12T23:28:57.859Z,94.21
2023-01-12T23:31:29.577Z,94.08
2023-01-12T23:33:58.211Z,94.24
2023-01-12T23:36:29.876Z,93.81
2023-01-12T23:39:03.547Z,93.87
2023-01-12T23:41:35.007Z,93.70
2023-01-12T23:44:06.139Z,93.62
2023-01-12T23:46:37.608Z,93.30
2023-01-12T23:49:06.567Z,93.51
2023-01-12T23:51:36.731Z,93.46
2023-01-12T23:54:05.197Z,93.28
2023-01-12T23:56:34.742Z,92.41
2023-01-12T23:59:02.914Z,92.78
